createdAt,value
2019-05-25T00:03:35.645Z,10.17
2019-05-25T00:09:40.316Z,12.70
2019-05-25T00:15:44.954Z,9.90
2019-05-25T00:21:49.878Z,9.60
2019-05-25T00:27:54.440Z,12.17
2019-05-25T00:33:59.083Z,11.50
2019-05-25T00:40:05.634Z,10.13
2019-05-25T00:46:10.183Z,9.73
2019-05-25T00:52:14.743Z,7.40
2019-05-25T00:58:19.308Z,8.90
2019-05-25T01:04:23.871Z,12.33
2019-05-25T01:10:28.670Z,7.50
2019-05-25T01:16:33.241Z,10.63
2019-05-25T01:22:37.805Z,7.07
2019-05-25T01:28:42.358Z,8.30
2019-05-25T01:34:46.925Z,8.50
2019-05-25T01:40:51.731Z,11.70
2019-05-25T01:46:56.304Z,8.50
2019-05-25T01:53:00.857Z,9.37
2019-05-25T01:59:05.495Z,12.70
2019-05-25T02:05:10.465Z,13.93
2019-05-25T02:11:15.033Z,13.00
2019-05-25T02:17:19.670Z,10.00
2019-05-25T02:23:24.229Z,7.53
2019-05-25T02:29:28.805Z,20.73
2019-05-25T02:35:33.352Z,9.50
2019-05-25T02:41:38.290Z,11.43
2019-05-25T02:47:42.866Z,11.57
2019-05-25T02:53:47.494Z,14.17
2019-05-25T02:59:52.068Z,11.10
2019-05-25T03:05:57.990Z,10.00
2019-05-25T03:12:02.618Z,10.17
2019-05-25T03:18:07.227Z,13.83
2019-05-25T03:24:11.844Z,12.23
2019-05-25T03:30:18.261Z,8.17
2019-05-25T03:36:22.840Z,11.70
2019-05-25T03:42:27.407Z,13.80
2019-05-25T03:48:31.962Z,10.90
2019-05-25T03:54:36.541Z,9.90
2019-05-25T04:00:41.358Z,11.60
2019-05-25T04:06:45.987Z,8.97
2019-05-25T04:12:50.579Z,10.80
2019-05-25T04:18:55.152Z,10.20
2019-05-25T04:24:59.706Z,9.50
2019-05-25T04:31:04.548Z,10.30
2019-05-25T04:37:09.110Z,7.70
2019-05-25T04:43:13.679Z,13.30
2019-05-25T04:49:18.309Z,17.50
2019-05-25T04:55:22.896Z,24.07
2019-05-25T05:01:27.472Z,23.50
2019-05-25T05:07:32.027Z,14.10
2019-05-25T05:13:36.712Z,12.00
2019-05-25T05:19:41.278Z,15.07
2019-05-25T05:25:45.922Z,12.63
2019-05-25T05:31:50.627Z,13.90
2019-05-25T05:37:55.527Z,13.60
2019-05-25T05:44:01.598Z,13.43
2019-05-25T05:50:10.764Z,15.73
2019-05-25T05:56:15.428Z,12.97
2019-05-25T06:02:20.059Z,14.97
2019-05-25T06:08:24.631Z,13.63
2019-05-25T06:14:29.216Z,11.43
2019-05-25T06:20:33.845Z,25.97
2019-05-25T06:26:38.419Z,12.20
2019-05-25T06:32:43.145Z,15.43
2019-05-25T06:38:47.827Z,12.10
2019-05-25T06:44:52.403Z,12.57
2019-05-25T06:50:56.975Z,10.90
2019-05-25T06:57:01.543Z,16.27
2019-05-25T07:03:06.162Z,9.43
2019-05-25T07:09:10.799Z,10.03
2019-05-25T07:15:15.795Z,15.20
2019-05-25T07:21:20.421Z,10.27
2019-05-25T07:27:25.057Z,10.43
2019-05-25T07:33:29.680Z,8.50
2019-05-25T07:39:34.240Z,8.23
2019-05-25T07:45:38.814Z,5.77
2019-05-25T07:51:43.370Z,8.20
2019-05-25T07:57:48.002Z,13.93
2019-05-25T08:03:52.639Z,15.50
2019-05-25T08:09:57.226Z,8.60
2019-05-25T08:16:01.796Z,6.60
2019-05-25T08:22:06.515Z,6.67
2019-05-25T08:28:11.090Z,8.40
2019-05-25T08:34:16.468Z,8.63
2019-05-25T08:40:21.189Z,6.23
2019-05-25T08:46:25.763Z,7.97
2019-05-25T08:52:30.311Z,6.47
2019-05-25T08:58:47.586Z,6.80
2019-05-25T09:04:41.221Z,7.23
2019-05-25T09:10:45.809Z,9.43
2019-05-25T09:16:50.430Z,5.00
2019-05-25T09:22:54.996Z,6.03
2019-05-25T09:29:04.494Z,5.40
2019-05-25T09:35:09.417Z,3.97
2019-05-25T09:41:14.014Z,5.30
2019-05-25T09:47:18.578Z,4.83
2019-05-25T09:53:23.140Z,4.40
2019-05-25T09:59:27.698Z,8.90
2019-05-25T10:05:32.349Z,5.50
2019-05-25T10:11:36.976Z,5.43
2019-05-25T10:17:41.547Z,5.10
2019-05-25T10:23:46.092Z,5.67
2019-05-25T10:29:50.729Z,6.83
2019-05-25T10:35:55.285Z,4.73
2019-05-25T10:41:59.845Z,4.20
2019-05-25T10:48:04.604Z,6.73
2019-05-25T10:54:09.260Z,5.23
2019-05-25T11:00:14.632Z,9.73
2019-05-25T11:06:19.198Z,4.70
2019-05-25T11:12:25.999Z,3.70
2019-05-25T11:18:30.040Z,5.47
2019-05-25T11:24:34.684Z,4.70
2019-05-25T11:30:39.245Z,7.07
2019-05-25T11:36:43.816Z,4.30
2019-05-25T11:42:48.531Z,5.00
2019-05-25T11:48:53.133Z,5.67
2019-05-25T11:54:57.690Z,4.33
2019-05-25T12:01:02.365Z,3.20
2019-05-25T12:07:07.150Z,5.43
2019-05-25T12:13:11.722Z,5.60
2019-05-25T12:19:16.362Z,6.53
2019-05-25T12:25:21.181Z,4.37
2019-05-25T12:31:25.741Z,4.23
2019-05-25T12:37:30.301Z,4.60
2019-05-25T12:43:34.920Z,6.27
2019-05-25T12:49:49.985Z,6.17
2019-05-25T12:55:45.769Z,4.67
2019-05-25T13:01:50.328Z,7.13
2019-05-25T13:07:55.021Z,8.53
2019-05-25T13:14:13.672Z,6.17
2019-05-25T13:20:07.976Z,5.77
2019-05-25T13:26:12.618Z,13.70
2019-05-25T13:32:17.176Z,7.30
2019-05-25T13:38:21.765Z,5.17
2019-05-25T13:44:26.356Z,4.00
2019-05-25T13:50:30.914Z,6.97
2019-05-25T13:56:35.489Z,14.17
2019-05-25T14:02:40.134Z,16.37
2019-05-25T14:08:44.682Z,7.47
2019-05-25T14:14:49.415Z,3.63
2019-05-25T14:20:53.979Z,5.00
2019-05-25T14:26:58.535Z,6.17
2019-05-25T14:33:03.696Z,7.30
2019-05-25T14:39:11.505Z,8.37
2019-05-25T14:45:16.710Z,6.93
2019-05-25T14:51:21.288Z,9.57
2019-05-25T14:57:26.004Z,11.87
2019-05-25T15:03:30.707Z,9.13
2019-05-25T15:09:35.267Z,5.23
2019-05-25T15:15:39.831Z,7.37
2019-05-25T15:21:44.618Z,8.43
2019-05-25T15:27:49.827Z,9.63
2019-05-25T15:33:54.386Z,8.90
2019-05-25T15:39:58.955Z,6.20
2019-05-25T15:46:03.672Z,7.37
2019-05-25T15:52:08.464Z,6.63
2019-05-25T15:58:13.034Z,6.83
2019-05-25T16:04:17.736Z,11.10
2019-05-25T16:10:22.362Z,5.87
2019-05-25T16:16:30.087Z,9.70
2019-05-25T16:22:33.401Z,7.27
2019-05-25T16:28:38.019Z,9.00
2019-05-25T16:34:42.599Z,7.63
2019-05-25T16:40:47.157Z,7.03
2019-05-25T16:46:51.864Z,10.73
2019-05-25T16:52:56.579Z,6.57
2019-05-25T16:59:01.149Z,4.70
2019-05-25T17:05:07.016Z,9.53
2019-05-25T17:11:11.581Z,7.17
2019-05-25T17:17:16.152Z,9.70
2019-05-25T17:23:20.732Z,10.23
2019-05-25T17:29:25.308Z,7.90
2019-05-25T17:35:29.860Z,8.27
2019-05-25T17:41:34.429Z,9.90
2019-05-25T17:47:39.005Z,11.10
2019-05-25T17:53:43.663Z,6.47
2019-05-25T17:59:48.260Z,4.37
2019-05-25T18:05:52.872Z,4.30
2019-05-25T18:11:57.495Z,5.73
2019-05-25T18:18:02.068Z,6.87
2019-05-25T18:24:06.766Z,6.27
2019-05-25T18:30:12.742Z,5.50
2019-05-25T18:36:17.405Z,2.70
2019-05-25T18:42:22.345Z,2.97
2019-05-25T18:48:26.905Z,6.13
2019-05-25T18:54:31.492Z,5.53
2019-05-25T19:00:36.118Z,3.13
2019-05-25T19:06:41.039Z,2.80
2019-05-25T19:12:45.597Z,2.47
2019-05-25T19:18:50.229Z,8.33
2019-05-25T19:24:54.814Z,2.20
2019-05-25T19:30:59.378Z,8.13
2019-05-25T19:37:04.074Z,3.43
2019-05-25T19:43:08.699Z,5.93
2019-05-25T19:49:13.273Z,3.50
2019-05-25T19:55:17.904Z,3.33
2019-05-25T20:01:22.539Z,3.70
2019-05-25T20:07:27.100Z,5.83
2019-05-25T20:13:31.680Z,9.47
2019-05-25T20:19:36.256Z,4.73
2019-05-25T20:25:40.900Z,6.73
2019-05-25T20:31:45.460Z,7.60
2019-05-25T20:37:50.167Z,5.23
2019-05-25T20:43:54.754Z,3.90
2019-05-25T20:49:59.415Z,4.10
2019-05-25T20:56:04.044Z,7.43
2019-05-25T21:02:08.600Z,2.30
2019-05-25T21:08:13.210Z,5.73
2019-05-25T21:14:17.868Z,3.10
2019-05-25T21:20:22.496Z,4.70
2019-05-25T21:26:27.134Z,2.10
2019-05-25T21:32:31.720Z,4.17
2019-05-25T21:38:36.266Z,2.80
2019-05-25T21:44:40.836Z,2.40
2019-05-25T21:50:45.533Z,2.80
2019-05-25T21:56:50.267Z,3.00
2019-05-25T22:02:55.025Z,4.70
2019-05-25T22:08:59.677Z,2.90
2019-05-25T22:15:12.319Z,6.17
2019-05-25T22:21:16.863Z,6.80
2019-05-25T22:27:21.414Z,4.27
2019-05-25T22:33:26.006Z,5.20
2019-05-25T22:39:30.596Z,3.13
2019-05-25T22:45:35.213Z,2.90
2019-05-25T22:51:39.766Z,3.17
2019-05-25T22:57:44.341Z,3.53
2019-05-25T23:03:48.946Z,4.07
2019-05-25T23:09:53.489Z,4.00
2019-05-25T23:15:58.050Z,13.13
2019-05-25T23:22:02.697Z,2.40
2019-05-25T23:28:07.300Z,4.60
2019-05-25T23:34:11.871Z,6.07
2019-05-25T23:40:17.359Z,5.57
2019-05-25T23:46:21.985Z,5.40
2019-05-25T23:52:26.623Z,6.60
2019-05-25T23:58:31.200Z,5.40
